Time;durP1;ratioP1;P1;durP2;ratioP2;P2;SDS_P1;SDS_P2;PMS_P1;PMS_P2;Temp;Humidity;BMP_temperature;BMP_pressure;BME280_temperature;BME280_humidity;BME280_pressure;Samples;Min_cycle;Max_cycle;Signal;HPM_P1;HPM_P2
2021/08/21 00:00:15;;;;;;;8.00;7.20;;;18.20;99.90;;;;;;4992601;28;20175;-64
2021/08/21 00:02:41;;;;;;;6.93;6.23;;;18.10;99.90;;;;;;4992537;28;20207;-64
2021/08/21 00:05:08;;;;;;;7.73;7.03;;;18.10;99.90;;;;;;4992651;28;20418;-64
2021/08/21 00:07:33;;;;;;;7.27;6.53;;;18.10;99.90;;;;;;4992523;28;20302;-64
2021/08/21 00:10:09;;;;;;;7.33;6.73;;;18.00;99.90;;;;;;4992222;28;20928;-64
2021/08/21 00:12:35;;;;;;;7.70;7.10;;;18.00;99.90;;;;;;4992451;28;20214;-64
2021/08/21 00:15:00;;;;;;;7.23;6.63;;;18.00;99.90;;;;;;4992538;28;20507;-64
2021/08/21 00:17:26;;;;;;;8.00;7.30;;;18.00;99.90;;;;;;4992527;28;20167;-64
2021/08/21 00:19:52;;;;;;;8.77;7.97;;;17.90;99.90;;;;;;4992216;28;20687;-64
2021/08/21 00:22:17;;;;;;;8.40;7.60;;;17.80;99.90;;;;;;4992485;28;20194;-64
2021/08/21 00:24:43;;;;;;;10.10;7.67;;;17.60;99.90;;;;;;4992456;28;20222;-64
2021/08/21 00:27:09;;;;;;;7.90;7.20;;;17.70;99.90;;;;;;4992426;28;20172;-64
2021/08/21 00:29:34;;;;;;;7.90;7.10;;;17.70;99.90;;;;;;4992028;28;20211;-64
2021/08/21 00:32:01;;;;;;;7.70;7.10;;;17.70;99.90;;;;;;4992578;28;20282;-64
2021/08/21 00:34:26;;;;;;;7.40;6.70;;;17.70;99.90;;;;;;4992434;28;20691;-64
2021/08/21 00:36:52;;;;;;;9.10;7.70;;;17.70;99.90;;;;;;4992303;28;20410;-64
2021/08/21 00:39:17;;;;;;;7.77;7.10;;;17.70;99.90;;;;;;4992050;28;20172;-64
2021/08/21 00:41:43;;;;;;;8.20;7.50;;;17.70;99.90;;;;;;4992223;28;20677;-64
2021/08/21 00:44:10;;;;;;;8.50;7.43;;;17.60;99.90;;;;;;4992367;28;20608;-64
2021/08/21 00:47:10;;;;;;;8.30;7.60;;;17.60;99.90;;;;;;4992266;28;20417;-64
2021/08/21 00:49:41;;;;;;;7.67;6.97;;;17.60;99.90;;;;;;4991886;28;20974;-64
2021/08/21 00:52:09;;;;;;;8.70;8.00;;;17.60;99.90;;;;;;4991992;28;20438;-64
2021/08/21 00:54:34;;;;;;;10.50;8.73;;;17.50;99.90;;;;;;4992338;28;20943;-65
2021/08/21 00:57:00;;;;;;;7.80;7.20;;;17.50;99.90;;;;;;4992371;28;20411;-64
2021/08/21 00:59:36;;;;;;;9.13;8.23;;;17.40;99.90;;;;;;4991868;28;20180;-64
2021/08/21 01:02:06;;;;;;;9.10;8.30;;;17.40;99.90;;;;;;4991980;28;20461;-64
2021/08/21 01:04:33;;;;;;;9.33;8.53;;;17.40;99.90;;;;;;4995305;28;20430;-64
2021/08/21 01:07:19;;;;;;;8.87;7.97;;;17.40;99.90;;;;;;4995651;28;20550;-64
2021/08/21 01:09:46;;;;;;;8.10;7.43;;;17.40;99.90;;;;;;4995281;28;20462;-64
2021/08/21 01:12:13;;;;;;;9.43;8.53;;;17.50;99.90;;;;;;4995618;28;20952;-64
2021/08/21 01:14:40;;;;;;;8.70;8.00;;;17.50;99.90;;;;;;4995611;28;20480;-64
2021/08/21 01:17:06;;;;;;;8.90;8.17;;;17.50;99.90;;;;;;4995501;28;20418;-64
2021/08/21 01:19:35;;;;;;;8.43;7.70;;;17.50;99.90;;;;;;4995257;28;20925;-64
2021/08/21 01:22:00;;;;;;;8.10;7.50;;;17.40;99.90;;;;;;4995373;28;20864;-64
2021/08/21 01:24:26;;;;;;;10.33;9.00;;;17.40;99.90;;;;;;4995425;28;20426;-64
2021/08/21 01:26:56;;;;;;;9.53;8.63;;;17.30;99.90;;;;;;4995485;28;20172;-64
2021/08/21 01:29:22;;;;;;;8.53;7.80;;;17.30;99.90;;;;;;4994942;28;20199;-64
2021/08/21 01:31:48;;;;;;;8.03;7.43;;;17.30;99.90;;;;;;4995184;28;20443;-64
2021/08/21 01:34:14;;;;;;;8.80;8.10;;;17.40;99.90;;;;;;4995258;28;20477;-64
2021/08/21 01:36:48;;;;;;;8.37;7.67;;;17.30;99.90;;;;;;4995244;28;20415;-64
2021/08/21 01:39:14;;;;;;;7.90;7.20;;;17.20;99.90;;;;;;4995155;28;20174;-64
2021/08/21 01:41:41;;;;;;;8.40;7.60;;;17.20;99.90;;;;;;4995018;28;20453;-64
2021/08/21 01:44:15;;;;;;;8.93;8.13;;;17.10;99.90;;;;;;4995035;28;20614;-64
2021/08/21 01:46:41;;;;;;;9.33;8.53;;;17.00;99.90;;;;;;4995050;28;20434;-64
2021/08/21 01:49:11;;;;;;;9.40;8.47;;;17.00;99.90;;;;;;4994635;28;20462;-64
2021/08/21 01:51:41;;;;;;;9.30;8.30;;;17.00;99.90;;;;;;4994998;28;20434;-64
2021/08/21 01:54:07;;;;;;;8.30;7.70;;;17.00;99.90;;;;;;4994875;28;20481;-64
2021/08/21 01:56:53;;;;;;;10.07;9.17;;;17.00;99.90;;;;;;4994900;28;20423;-64
2021/08/21 01:59:25;;;;;;;8.97;8.27;;;16.90;99.90;;;;;;4993326;28;20214;-64
2021/08/21 02:01:52;;;;;;;10.60;9.50;;;16.80;99.90;;;;;;4994624;28;20976;-65
2021/08/21 02:04:18;;;;;;;8.93;8.17;;;16.80;99.90;;;;;;4994750;28;20926;-64
2021/08/21 02:06:44;;;;;;;10.90;8.60;;;16.80;99.90;;;;;;4994587;28;20426;-64
2021/08/21 02:09:11;;;;;;;9.00;8.10;;;16.70;99.90;;;;;;4994248;28;20497;-64
2021/08/21 02:11:37;;;;;;;8.77;7.97;;;16.60;99.90;;;;;;4994638;28;20187;-64
2021/08/21 02:14:03;;;;;;;9.40;8.53;;;16.60;99.90;;;;;;4994588;28;20415;-64
2021/08/21 02:16:28;;;;;;;9.17;8.27;;;16.50;99.90;;;;;;4994148;28;20175;-64
2021/08/21 02:18:54;;;;;;;9.27;8.40;;;16.50;99.90;;;;;;4994186;28;20178;-64
2021/08/21 02:21:20;;;;;;;8.77;7.97;;;16.50;99.90;;;;;;4994248;28;20270;-64
2021/08/21 02:23:46;;;;;;;9.50;8.70;;;16.40;99.90;;;;;;4994380;28;20175;-64
2021/08/21 02:26:12;;;;;;;11.77;10.87;;;16.30;99.90;;;;;;4994368;28;20168;-64
2021/08/21 02:28:38;;;;;;;8.80;8.00;;;16.30;99.90;;;;;;4993997;28;20920;-64
2021/08/21 02:31:04;;;;;;;11.07;10.07;;;16.30;99.90;;;;;;4994114;28;20836;-64
2021/08/21 02:33:29;;;;;;;8.63;7.83;;;16.30;99.90;;;;;;4994183;28;20840;-64
2021/08/21 02:35:55;;;;;;;9.87;8.80;;;16.30;99.90;;;;;;4994082;28;20179;-64
2021/08/21 02:38:22;;;;;;;9.80;9.00;;;16.30;99.90;;;;;;4993951;28;20171;-64
2021/08/21 02:40:48;;;;;;;8.10;7.40;;;16.30;99.90;;;;;;4993968;28;20175;-64
2021/08/21 02:43:14;;;;;;;9.57;8.63;;;16.30;99.90;;;;;;4994044;28;20407;-64
2021/08/21 02:45:39;;;;;;;8.90;8.20;;;16.30;99.90;;;;;;4993912;28;20493;-64
2021/08/21 02:48:05;;;;;;;9.10;8.40;;;16.20;99.90;;;;;;4993876;28;20183;-64
2021/08/21 02:50:31;;;;;;;9.20;8.50;;;16.10;99.90;;;;;;4993360;28;20204;-64
2021/08/21 02:52:56;;;;;;;8.90;8.10;;;16.10;99.90;;;;;;4993731;28;20418;-64
2021/08/21 02:55:22;;;;;;;8.97;8.27;;;16.10;99.90;;;;;;4994041;28;20226;-64
2021/08/21 02:57:47;;;;;;;9.43;8.53;;;16.10;99.90;;;;;;4993752;28;20171;-64
2021/08/21 03:00:13;;;;;;;10.10;8.90;;;16.10;99.90;;;;;;4993424;28;20262;-64
2021/08/21 03:02:40;;;;;;;8.87;8.03;;;16.10;99.90;;;;;;4993489;28;20215;-64
2021/08/21 03:05:07;;;;;;;9.23;8.43;;;16.10;99.90;;;;;;4993519;28;20170;-64
2021/08/21 03:07:32;;;;;;;8.83;8.03;;;16.00;99.90;;;;;;4993437;28;20426;-64
2021/08/21 03:09:58;;;;;;;9.83;9.03;;;16.00;99.90;;;;;;4993188;28;21166;-64
2021/08/21 03:12:23;;;;;;;9.13;8.33;;;16.00;99.90;;;;;;4993578;28;20211;-64
2021/08/21 03:14:49;;;;;;;8.20;7.60;;;16.00;99.90;;;;;;4993440;28;20163;-64
2021/08/21 03:17:15;;;;;;;9.23;8.43;;;15.90;99.90;;;;;;4993329;28;20677;-64
2021/08/21 03:19:42;;;;;;;8.30;7.60;;;15.90;99.90;;;;;;4992930;28;20585;-64
2021/08/21 03:22:08;;;;;;;8.73;8.03;;;15.80;99.90;;;;;;4993086;28;20187;-64
2021/08/21 03:24:33;;;;;;;8.87;8.17;;;15.80;99.90;;;;;;4993272;28;20419;-64
2021/08/21 03:26:59;;;;;;;8.20;7.50;;;15.90;99.90;;;;;;4992422;28;20172;-64
2021/08/21 03:29:24;;;;;;;8.87;8.13;;;15.90;99.90;;;;;;4992843;28;20708;-64
2021/08/21 03:31:50;;;;;;;8.70;8.00;;;15.90;99.90;;;;;;4993085;28;20196;-64
2021/08/21 03:34:15;;;;;;;8.37;7.60;;;15.90;99.90;;;;;;4993072;28;20654;-64
2021/08/21 03:36:41;;;;;;;9.00;8.20;;;15.90;99.90;;;;;;4992872;28;20539;-64
2021/08/21 03:39:06;;;;;;;10.70;9.70;;;15.90;99.90;;;;;;4992725;28;20599;-64
2021/08/21 03:41:32;;;;;;;8.67;8.07;;;15.80;99.90;;;;;;4992952;28;20708;-64
2021/08/21 03:43:57;;;;;;;9.40;8.50;;;15.80;99.90;;;;;;4992867;28;20214;-64
2021/08/21 03:46:23;;;;;;;9.53;8.27;;;15.80;99.90;;;;;;4992945;28;20262;-64
2021/08/21 03:48:48;;;;;;;9.43;8.73;;;15.70;99.90;;;;;;4992569;28;20186;-64
2021/08/21 03:51:14;;;;;;;10.63;9.53;;;15.70;99.90;;;;;;4992706;28;20249;-64
2021/08/21 03:53:39;;;;;;;10.57;9.60;;;15.80;99.90;;;;;;4992758;28;20262;-64
2021/08/21 03:56:05;;;;;;;9.47;8.50;;;15.70;99.90;;;;;;4991509;28;20175;-64
2021/08/21 03:58:30;;;;;;;9.53;8.53;;;15.70;99.90;;;;;;4992464;28;20207;-64
2021/08/21 04:00:56;;;;;;;9.20;8.50;;;15.60;99.90;;;;;;4993416;28;20203;-66
2021/08/21 04:03:21;;;;;;;9.93;9.07;;;15.70;99.90;;;;;;4992724;28;20172;-65
2021/08/21 04:05:47;;;;;;;9.37;8.57;;;15.60;99.90;;;;;;4992631;28;20174;-65
2021/08/21 04:08:13;;;;;;;10.53;9.43;;;15.70;99.90;;;;;;4992619;28;20660;-65
2021/08/21 04:10:39;;;;;;;10.53;9.63;;;15.70;99.90;;;;;;4992363;28;20226;-65
2021/08/21 04:13:04;;;;;;;9.57;8.67;;;15.70;99.90;;;;;;4992634;28;20280;-65
2021/08/21 04:15:30;;;;;;;9.30;8.50;;;15.70;99.90;;;;;;4992568;28;20498;-65
2021/08/21 04:17:55;;;;;;;10.27;9.37;;;15.70;99.90;;;;;;4992548;28;20171;-65
2021/08/21 04:20:21;;;;;;;9.17;8.30;;;15.70;99.90;;;;;;4992234;28;20207;-65
2021/08/21 04:22:46;;;;;;;9.70;8.77;;;15.60;99.90;;;;;;4992484;28;20254;-65
2021/08/21 04:25:12;;;;;;;10.20;9.30;;;15.70;99.90;;;;;;4992494;28;20176;-65
2021/08/21 04:27:37;;;;;;;9.97;9.07;;;15.60;99.90;;;;;;4992469;28;20185;-65
2021/08/21 04:30:04;;;;;;;9.80;9.00;;;15.60;99.90;;;;;;4992409;28;20203;-65
2021/08/21 04:32:29;;;;;;;8.50;7.80;;;15.60;99.90;;;;;;4992270;28;20298;-65
2021/08/21 04:34:55;;;;;;;8.73;8.03;;;15.70;99.90;;;;;;4992341;28;20843;-64
2021/08/21 04:37:21;;;;;;;8.50;7.77;;;15.70;99.90;;;;;;4992321;28;20171;-65
2021/08/21 04:39:47;;;;;;;9.33;8.60;;;15.70;99.90;;;;;;4996068;28;20645;-65
2021/08/21 04:42:12;;;;;;;9.67;8.50;;;15.70;99.90;;;;;;4996217;28;20453;-65
2021/08/21 04:44:38;;;;;;;11.03;8.50;;;15.70;99.90;;;;;;4996212;28;20179;-65
2021/08/21 04:47:04;;;;;;;9.50;8.70;;;15.70;99.90;;;;;;4996255;28;20559;-65
2021/08/21 04:49:30;;;;;;;9.73;8.67;;;15.80;99.90;;;;;;4995800;28;20328;-65
2021/08/21 04:51:56;;;;;;;8.50;7.80;;;15.80;99.90;;;;;;4995867;28;20442;-65
2021/08/21 04:54:22;;;;;;;9.63;8.83;;;15.70;99.90;;;;;;4996103;28;20531;-65
2021/08/21 04:56:48;;;;;;;9.43;8.63;;;15.80;99.90;;;;;;4996110;28;20422;-65
2021/08/21 04:59:14;;;;;;;8.70;8.00;;;15.80;99.90;;;;;;4994425;28;20180;-65
2021/08/21 05:01:40;;;;;;;9.43;8.73;;;15.90;99.90;;;;;;4995648;28;20458;-65
2021/08/21 05:04:05;;;;;;;9.83;8.93;;;15.90;99.90;;;;;;4996339;28;20174;-65
2021/08/21 05:06:31;;;;;;;9.63;8.73;;;16.10;99.90;;;;;;4995703;28;20646;-65
2021/08/21 05:08:56;;;;;;;10.00;8.03;;;16.20;99.90;;;;;;4995475;28;20201;-64
2021/08/21 05:11:22;;;;;;;9.00;8.30;;;16.30;99.90;;;;;;4995718;28;20191;-65
2021/08/21 05:13:47;;;;;;;8.70;8.00;;;16.40;99.90;;;;;;4995689;28;20275;-65
2021/08/21 05:16:13;;;;;;;8.30;7.57;;;16.40;99.90;;;;;;4995579;28;20198;-64
2021/08/21 05:18:42;;;;;;;8.53;7.83;;;16.50;99.90;;;;;;4995326;28;20641;-64
2021/08/21 05:21:13;;;;;;;9.20;8.13;;;16.60;99.90;;;;;;4995841;28;20191;-64
2021/08/21 05:23:40;;;;;;;9.43;8.63;;;16.80;99.90;;;;;;4995527;28;20422;-65
2021/08/21 05:26:06;;;;;;;8.33;7.53;;;16.80;99.90;;;;;;4995450;28;20423;-65
2021/08/21 05:28:32;;;;;;;8.47;7.77;;;16.90;99.90;;;;;;4995116;28;20940;-65
2021/08/21 05:30:59;;;;;;;9.43;7.77;;;17.00;99.90;;;;;;4995202;28;20466;-66
2021/08/21 05:33:25;;;;;;;8.10;7.40;;;17.00;99.90;;;;;;4995219;28;20181;-66
2021/08/21 05:35:51;;;;;;;9.33;8.63;;;17.00;99.90;;;;;;4995235;28;20920;-65
2021/08/21 05:38:17;;;;;;;8.27;7.67;;;17.10;99.90;;;;;;4995071;28;20928;-65
2021/08/21 05:40:43;;;;;;;8.60;7.90;;;17.20;99.90;;;;;;4995004;28;20510;-66
2021/08/21 05:43:09;;;;;;;7.73;7.23;;;17.30;99.90;;;;;;4995174;28;20541;-66
2021/08/21 05:45:35;;;;;;;9.63;8.73;;;17.40;99.90;;;;;;4995047;28;20187;-65
2021/08/21 05:48:00;;;;;;;8.20;7.50;;;17.40;99.90;;;;;;4994957;28;20418;-65
2021/08/21 05:50:26;;;;;;;9.77;8.97;;;17.50;99.90;;;;;;4993694;28;20203;-66
2021/08/21 05:52:52;;;;;;;9.33;8.43;;;17.60;99.90;;;;;;4994938;28;20546;-65
2021/08/21 05:55:19;;;;;;;8.80;8.03;;;17.70;99.90;;;;;;4994960;28;20168;-65
2021/08/21 05:57:44;;;;;;;8.20;7.50;;;17.70;99.90;;;;;;4994918;28;20188;-65
2021/08/21 06:00:10;;;;;;;9.53;8.73;;;17.80;99.90;;;;;;4993297;28;20515;-65
2021/08/21 06:02:36;;;;;;;8.83;8.10;;;17.90;99.90;;;;;;4993334;28;20241;-64
2021/08/21 06:05:02;;;;;;;8.50;7.80;;;18.00;99.90;;;;;;4994711;28;20418;-65
2021/08/21 06:07:29;;;;;;;8.90;8.10;;;18.10;99.90;;;;;;4994714;28;20638;-64
2021/08/21 06:09:54;;;;;;;9.13;8.33;;;18.00;99.90;;;;;;4994335;28;20486;-64
2021/08/21 06:12:20;;;;;;;8.77;8.07;;;18.10;99.90;;;;;;4994909;28;20963;-65
2021/08/21 06:14:45;;;;;;;8.83;8.03;;;18.10;99.90;;;;;;4994545;28;20176;-64
2021/08/21 06:17:11;;;;;;;9.20;8.30;;;18.10;99.90;;;;;;4994477;28;20167;-65
2021/08/21 06:19:37;;;;;;;9.03;8.27;;;18.20;99.90;;;;;;4994176;28;20226;-65
2021/08/21 06:22:04;;;;;;;9.83;9.03;;;18.30;99.90;;;;;;4994509;28;20195;-64
2021/08/21 06:24:29;;;;;;;9.63;8.73;;;18.40;99.90;;;;;;4994400;28;20176;-65
2021/08/21 06:26:55;;;;;;;8.80;7.90;;;18.50;99.90;;;;;;4994376;28;20415;-65
2021/08/21 06:29:20;;;;;;;9.53;8.63;;;18.60;99.90;;;;;;4993884;28;20199;-65
2021/08/21 06:31:46;;;;;;;9.00;8.20;;;18.70;99.90;;;;;;4994079;28;20241;-65
2021/08/21 06:34:11;;;;;;;8.60;7.90;;;18.80;99.90;;;;;;4994266;28;20633;-65
2021/08/21 06:36:37;;;;;;;9.07;8.37;;;19.00;99.90;;;;;;4994099;28;20665;-65
2021/08/21 06:39:03;;;;;;;7.93;7.33;;;19.20;99.90;;;;;;4993905;28;20652;-65
2021/08/21 06:41:29;;;;;;;8.23;7.53;;;19.40;99.90;;;;;;4994006;28;20202;-66
2021/08/21 06:43:54;;;;;;;15.13;8.00;;;19.50;99.90;;;;;;4993987;28;20920;-65
2021/08/21 06:46:20;;;;;;;8.43;7.63;;;19.50;99.90;;;;;;4993836;28;20251;-65
2021/08/21 06:48:45;;;;;;;10.10;8.07;;;19.60;99.90;;;;;;4993598;28;20637;-65
2021/08/21 06:51:11;;;;;;;9.60;8.63;;;19.60;99.90;;;;;;4993208;28;20211;-65
2021/08/21 06:53:37;;;;;;;8.43;7.63;;;19.80;99.90;;;;;;4993477;28;20168;-65
2021/08/21 06:56:04;;;;;;;10.13;9.43;;;20.00;99.90;;;;;;4993754;28;20419;-65
2021/08/21 06:58:30;;;;;;;9.50;8.70;;;20.00;99.90;;;;;;4993449;28;20159;-66
2021/08/21 07:00:56;;;;;;;7.93;7.13;;;19.90;99.90;;;;;;4993276;28;21034;-65
2021/08/21 07:03:22;;;;;;;9.40;8.70;;;20.00;99.90;;;;;;4993737;28;20186;-65
2021/08/21 07:05:48;;;;;;;9.23;8.33;;;20.20;99.90;;;;;;4993572;28;20187;-63
2021/08/21 07:08:13;;;;;;;8.20;7.50;;;20.50;99.90;;;;;;4993196;28;20171;-63
2021/08/21 07:10:39;;;;;;;8.97;7.23;;;21.00;99.90;;;;;;4993159;28;20203;-63
2021/08/21 07:13:05;;;;;;;9.47;8.63;;;21.00;99.90;;;;;;4993504;28;20168;-63
2021/08/21 07:15:31;;;;;;;8.80;8.10;;;21.10;99.90;;;;;;4993411;28;20502;-63
2021/08/21 07:17:57;;;;;;;7.47;6.87;;;21.10;99.90;;;;;;4993398;28;20507;-63
2021/08/21 07:20:23;;;;;;;8.40;7.70;;;21.20;99.90;;;;;;4993041;28;20180;-63
2021/08/21 07:22:48;;;;;;;8.00;7.40;;;21.30;99.90;;;;;;4993205;28;20201;-63
2021/08/21 07:25:14;;;;;;;9.30;8.03;;;21.50;99.90;;;;;;4993255;28;20434;-63
2021/08/21 07:27:39;;;;;;;8.20;7.40;;;21.70;99.90;;;;;;4993266;28;20676;-63
2021/08/21 07:30:05;;;;;;;7.80;7.00;;;22.00;99.90;;;;;;4992757;28;20270;-63
2021/08/21 07:32:31;;;;;;;7.70;7.00;;;22.50;99.90;;;;;;4993166;28;20202;-62
2021/08/21 07:34:56;;;;;;;9.07;8.20;;;23.00;99.90;;;;;;4993127;28;20415;-63
2021/08/21 07:37:22;;;;;;;10.23;8.00;;;23.30;99.90;;;;;;4993039;28;20179;-67
2021/08/21 07:39:48;;;;;;;7.40;6.70;;;23.10;99.90;;;;;;4992804;28;20183;-63
2021/08/21 07:42:14;;;;;;;9.40;5.83;;;23.10;99.90;;;;;;4992897;28;20207;-63
2021/08/21 07:44:39;;;;;;;6.80;6.07;;;23.20;99.90;;;;;;4992907;28;20172;-63
2021/08/21 07:47:05;;;;;;;12.87;6.77;;;23.30;99.90;;;;;;4992844;28;20590;-63
2021/08/21 07:49:30;;;;;;;7.10;6.50;;;23.50;99.90;;;;;;4992572;28;20290;-63
2021/08/21 07:51:56;;;;;;;7.20;6.60;;;24.00;99.90;;;;;;4992188;28;20242;-62
2021/08/21 07:54:22;;;;;;;7.40;6.23;;;24.20;99.90;;;;;;4991612;28;20184;-63
2021/08/21 07:56:47;;;;;;;6.20;5.70;;;24.50;99.90;;;;;;4992779;28;20164;-62
2021/08/21 07:59:13;;;;;;;7.03;5.90;;;24.70;99.90;;;;;;4992454;28;20251;-62
2021/08/21 08:01:38;;;;;;;8.97;6.20;;;24.50;99.90;;;;;;4991221;28;20681;-63
2021/08/21 08:04:04;;;;;;;7.63;6.93;;;24.90;99.90;;;;;;4992749;28;20234;-63
2021/08/21 08:06:29;;;;;;;9.23;6.70;;;25.20;99.90;;;;;;4992765;28;20175;-63
2021/08/21 08:08:55;;;;;;;6.90;6.40;;;25.30;99.90;;;;;;4992330;28;20168;-63
2021/08/21 08:11:20;;;;;;;11.73;10.13;;;25.30;99.90;;;;;;4992522;28;20204;-63
2021/08/21 08:13:46;;;;;;;8.40;7.77;;;25.50;99.90;;;;;;4992003;28;20167;-62
2021/08/21 08:16:11;;;;;;;6.97;6.27;;;25.80;99.90;;;;;;4992481;28;20226;-63
2021/08/21 08:18:37;;;;;;;7.27;6.67;;;26.20;99.90;;;;;;4992299;28;20175;-63
2021/08/21 08:21:02;;;;;;;6.97;6.40;;;26.50;99.90;;;;;;4992462;28;20199;-62
2021/08/21 08:23:28;;;;;;;7.37;6.70;;;26.60;99.90;;;;;;4992517;28;20222;-62
2021/08/21 08:25:54;;;;;;;8.20;6.53;;;26.80;99.90;;;;;;4992487;28;20175;-63
2021/08/21 08:28:19;;;;;;;7.00;6.40;;;26.50;99.90;;;;;;4992268;28;20641;-62
2021/08/21 08:30:45;;;;;;;5.97;5.47;;;26.40;99.90;;;;;;4992082;28;20612;-63
2021/08/21 08:33:10;;;;;;;6.77;6.27;;;26.30;99.90;;;;;;4992495;28;20195;-62
2021/08/21 08:35:36;;;;;;;6.43;5.90;;;26.20;99.90;;;;;;4992394;28;20171;-63
2021/08/21 08:38:01;;;;;;;6.37;5.77;;;26.30;99.90;;;;;;4992399;28;20566;-63
2021/08/21 08:40:27;;;;;;;5.50;5.10;;;26.40;99.90;;;;;;4992112;28;20167;-63
2021/08/21 08:42:53;;;;;;;6.30;5.27;;;26.70;99.90;;;;;;4990960;28;20191;-63
2021/08/21 08:45:18;;;;;;;6.03;5.53;;;27.10;99.90;;;;;;4992273;28;20251;-62
2021/08/21 08:47:44;;;;;;;5.33;4.93;;;27.10;99.90;;;;;;4992298;28;20661;-63
2021/08/21 08:50:12;;;;;;;5.87;5.47;;;27.10;99.90;;;;;;4990620;28;20258;-63
2021/08/21 08:52:39;;;;;;;6.20;5.67;;;27.40;99.90;;;;;;4991682;28;20238;-62
2021/08/21 08:55:06;;;;;;;6.00;5.50;;;27.30;99.90;;;;;;4990935;28;20450;-63
2021/08/21 08:57:41;;;;;;;6.30;5.80;;;27.80;99.90;;;;;;4992115;28;20426;-63
2021/08/21 09:00:27;;;;;;;6.20;5.70;;;27.90;99.90;;;;;;4991843;28;20449;-63
2021/08/21 09:02:55;;;;;;;6.57;6.07;;;28.10;99.60;;;;;;4991993;28;20466;-62
2021/08/21 09:05:24;;;;;;;6.13;5.53;;;28.40;99.10;;;;;;4991999;28;20870;-62
2021/08/21 09:07:52;;;;;;;5.80;5.40;;;28.20;98.90;;;;;;4991994;28;20429;-63
2021/08/21 09:10:28;;;;;;;5.63;4.93;;;28.60;98.60;;;;;;4990451;28;20493;-63
2021/08/21 09:13:05;;;;;;;5.90;5.50;;;29.30;98.20;;;;;;4991944;28;20438;-62
2021/08/21 09:15:34;;;;;;;5.80;5.30;;;29.50;97.40;;;;;;4992048;28;20781;-63
2021/08/21 09:18:05;;;;;;;5.23;4.90;;;29.50;96.90;;;;;;4991971;28;20415;-63
2021/08/21 09:20:32;;;;;;;6.57;5.77;;;29.90;96.30;;;;;;4991664;28;20456;-63
2021/08/21 09:23:16;;;;;;;5.33;4.93;;;30.40;96.40;;;;;;4992014;28;20423;-63
2021/08/21 09:25:42;;;;;;;6.60;6.10;;;30.80;94.80;;;;;;4993812;28;20416;-63
2021/08/21 09:28:23;;;;;;;5.90;5.50;;;30.60;94.70;;;;;;4995357;28;20418;-63
2021/08/21 09:31:00;;;;;;;5.97;5.47;;;31.20;94.10;;;;;;4995016;28;20485;-63
2021/08/21 09:33:25;;;;;;;9.43;6.13;;;31.40;93.60;;;;;;4994019;28;20934;-63
2021/08/21 09:35:51;;;;;;;6.20;5.60;;;31.70;92.60;;;;;;4995171;28;20429;-63
2021/08/21 09:38:16;;;;;;;6.97;6.37;;;31.50;92.40;;;;;;4995133;28;20563;-63
2021/08/21 09:40:42;;;;;;;6.47;5.87;;;31.20;92.50;;;;;;4995015;28;20178;-63
2021/08/21 09:43:21;;;;;;;6.13;5.63;;;31.30;92.20;;;;;;4995228;28;20189;-63
2021/08/21 09:45:47;;;;;;;5.97;5.40;;;32.00;91.80;;;;;;4995227;28;20167;-63
2021/08/21 09:48:13;;;;;;;6.70;6.10;;;32.60;90.50;;;;;;4995012;28;20421;-63
2021/08/21 09:50:41;;;;;;;6.63;6.23;;;32.00;90.70;;;;;;4993437;28;20466;-63
2021/08/21 09:53:13;;;;;;;10.73;6.00;;;32.70;90.10;;;;;;4994535;28;20172;-63
2021/08/21 09:55:39;;;;;;;7.83;7.00;;;32.90;89.70;;;;;;4994933;28;20525;-63
2021/08/21 09:58:07;;;;;;;7.30;6.60;;;33.20;88.50;;;;;;4993757;28;20430;-63
2021/08/21 10:00:35;;;;;;;7.07;6.37;;;33.80;86.80;;;;;;4994374;28;20422;-63
2021/08/21 10:03:03;;;;;;;11.70;10.70;;;34.10;83.70;;;;;;4995413;28;20509;-63
2021/08/21 10:05:28;;;;;;;11.63;7.13;;;34.80;82.00;;;;;;4994782;28;20415;-64
2021/08/21 10:08:03;;;;;;;7.30;6.20;;;34.30;80.60;;;;;;4994688;28;20431;-63
2021/08/21 10:10:35;;;;;;;11.53;6.43;;;34.70;79.50;;;;;;4994367;28;20202;-64
2021/08/21 10:13:08;;;;;;;7.40;6.90;;;34.60;80.30;;;;;;4994707;28;20430;-63
2021/08/21 10:15:37;;;;;;;7.10;6.60;;;35.50;77.10;;;;;;4994618;28;20411;-63
2021/08/21 10:18:03;;;;;;;7.23;6.73;;;35.50;75.10;;;;;;4994547;28;20510;-63
2021/08/21 10:20:29;;;;;;;7.27;6.67;;;35.60;74.60;;;;;;4994050;28;20430;-63
2021/08/21 10:22:55;;;;;;;7.10;6.60;;;35.20;74.10;;;;;;4994357;28;21008;-63
2021/08/21 10:25:25;;;;;;;8.63;7.97;;;34.40;74.90;;;;;;4994354;28;20176;-63
2021/08/21 10:27:55;;;;;;;8.07;7.50;;;33.50;75.60;;;;;;4993129;28;20176;-63
2021/08/21 10:30:22;;;;;;;6.90;6.40;;;33.70;75.50;;;;;;4994166;28;20828;-63
2021/08/21 10:32:59;;;;;;;7.23;6.83;;;35.00;74.10;;;;;;4994100;28;20443;-64
2021/08/21 10:35:48;;;;;;;7.10;6.50;;;35.50;72.70;;;;;;4993859;28;20498;-63
2021/08/21 10:38:32;;;;;;;6.67;6.27;;;35.60;73.20;;;;;;4994073;28;20446;-64
2021/08/21 10:41:10;;;;;;;7.13;6.53;;;36.10;70.00;;;;;;4993984;28;20528;-63
2021/08/21 10:43:43;;;;;;;7.10;6.60;;;37.20;67.80;;;;;;4994256;28;20414;-64
2021/08/21 10:46:09;;;;;;;6.73;6.23;;;37.80;66.30;;;;;;4993981;28;20471;-63
2021/08/21 10:48:35;;;;;;;7.47;7.00;;;37.30;64.90;;;;;;4993731;28;20951;-63
2021/08/21 10:51:04;;;;;;;7.27;6.67;;;35.90;66.10;;;;;;4993677;28;20286;-63
2021/08/21 10:53:34;;;;;;;8.87;7.03;;;35.70;66.90;;;;;;4993331;28;20167;-63
2021/08/21 10:56:03;;;;;;;7.60;7.00;;;35.70;65.90;;;;;;4994026;28;20741;-63
2021/08/21 10:58:30;;;;;;;6.77;6.37;;;35.50;66.20;;;;;;4993413;28;20477;-64
2021/08/21 11:01:03;;;;;;;7.30;6.70;;;37.10;64.10;;;;;;4993515;28;20450;-64
2021/08/21 11:03:29;;;;;;;7.27;6.67;;;38.10;61.80;;;;;;4993644;28;20423;-64
2021/08/21 11:06:00;;;;;;;7.27;6.83;;;38.60;60.70;;;;;;4993457;28;20935;-62
2021/08/21 11:08:31;;;;;;;7.50;6.90;;;38.30;59.70;;;;;;4993225;28;20180;-63
2021/08/21 11:11:09;;;;;;;7.40;6.80;;;35.70;61.70;;;;;;4993360;28;20472;-62
2021/08/21 11:16:53;;;;;;;6.87;6.40;;;36.30;61.40;;;;;;4993407;28;20415;-62
2021/08/21 11:19:38;;;;;;;7.70;7.20;;;36.50;61.00;;;;;;4990352;28;20423;-62
2021/08/21 11:22:11;;;;;;;7.87;7.20;;;36.70;59.80;;;;;;4993203;28;20443;-63
2021/08/21 11:24:39;;;;;;;7.40;7.00;;;36.70;60.90;;;;;;4993147;28;20415;-62
2021/08/21 11:27:22;;;;;;;7.37;6.87;;;38.20;59.30;;;;;;4993240;28;20469;-62
2021/08/21 11:30:12;;;;;;;7.20;6.60;;;39.10;57.80;;;;;;4992750;28;20549;-63
2021/08/21 11:32:45;;;;;;;7.37;6.87;;;39.60;56.10;;;;;;4993173;28;20513;-62
2021/08/21 11:35:35;;;;;;;7.57;6.87;;;40.00;54.70;;;;;;4993075;28;20789;-63
2021/08/21 11:38:08;;;;;;;7.47;7.00;;;39.70;54.20;;;;;;4993016;28;20423;-62
2021/08/21 11:40:42;;;;;;;7.87;7.37;;;37.10;55.30;;;;;;4992741;28;20415;-62
2021/08/21 11:43:13;;;;;;;7.57;6.97;;;35.80;58.10;;;;;;4992992;28;20426;-62
2021/08/21 11:45:40;;;;;;;6.97;6.57;;;38.00;56.20;;;;;;4992863;28;20853;-62
2021/08/21 11:48:06;;;;;;;7.73;7.03;;;37.30;56.10;;;;;;4992100;28;20442;-62
2021/08/21 11:50:39;;;;;;;7.20;6.70;;;36.30;56.10;;;;;;4992463;28;20963;-62
2021/08/21 11:53:09;;;;;;;6.97;6.57;;;36.40;57.70;;;;;;4992818;28;20411;-62
2021/08/21 11:55:36;;;;;;;7.47;6.80;;;36.90;56.60;;;;;;4992764;28;20419;-62
2021/08/21 11:58:03;;;;;;;8.60;7.87;;;37.30;55.90;;;;;;4992668;28;20464;-62
2021/08/21 12:00:31;;;;;;;7.80;7.10;;;37.60;55.70;;;;;;4992317;28;20434;-63
2021/08/21 12:03:03;;;;;;;7.43;6.93;;;38.80;54.30;;;;;;4992735;28;20497;-63
2021/08/21 12:05:35;;;;;;;7.07;6.53;;;39.30;54.10;;;;;;4992695;28;20909;-62
2021/08/21 12:08:20;;;;;;;6.60;6.10;;;39.80;53.60;;;;;;4992611;28;20419;-63
2021/08/21 12:10:54;;;;;;;6.57;6.03;;;39.30;53.10;;;;;;4992581;28;20458;-63
2021/08/21 12:13:25;;;;;;;6.40;6.00;;;40.50;50.30;;;;;;4992590;28;20415;-62
2021/08/21 12:15:52;;;;;;;8.83;7.53;;;41.70;49.20;;;;;;4992602;28;20944;-62
2021/08/21 12:18:20;;;;;;;6.67;6.27;;;41.50;47.90;;;;;;4992452;28;20423;-62
2021/08/21 12:20:47;;;;;;;6.40;6.00;;;39.30;48.70;;;;;;4992125;28;20462;-62
2021/08/21 12:23:14;;;;;;;6.73;6.23;;;38.00;50.10;;;;;;4992453;28;20497;-62
2021/08/21 12:25:50;;;;;;;6.30;5.80;;;38.20;50.90;;;;;;4992460;28;20986;-62
2021/08/21 12:28:19;;;;;;;6.90;6.23;;;40.30;49.40;;;;;;4992364;28;20422;-62
2021/08/21 12:31:02;;;;;;;5.30;5.00;;;39.80;48.30;;;;;;4992121;28;20461;-61
2021/08/21 12:33:54;;;;;;;6.40;6.00;;;39.40;48.20;;;;;;4992309;28;20430;-62
2021/08/21 12:36:24;;;;;;;6.77;6.20;;;38.60;49.20;;;;;;4992299;28;20437;-62
2021/08/21 12:39:11;;;;;;;7.10;6.60;;;39.40;48.20;;;;;;4992090;28;20415;-62
2021/08/21 12:41:55;;;;;;;6.30;5.70;;;40.30;47.90;;;;;;4992185;28;20948;-62
2021/08/21 12:44:44;;;;;;;6.53;6.13;;;41.50;46.40;;;;;;4992335;28;20780;-63
2021/08/21 12:47:15;;;;;;;6.03;5.73;;;42.60;44.60;;;;;;4992323;28;20418;-62
2021/08/21 12:49:49;;;;;;;6.00;5.63;;;43.20;44.20;;;;;;4992365;28;20557;-62
2021/08/21 12:52:21;;;;;;;6.40;6.00;;;43.90;43.90;;;;;;4991841;28;20442;-62